Time;durP1;ratioP1;P1;durP2;ratioP2;P2;SDS_P1;SDS_P2;PMS_P1;PMS_P2;Temp;Humidity;BMP_temperature;BMP_pressure;BME280_temperature;BME280_humidity;BME280_pressure;Samples;Min_cycle;Max_cycle;Signal;HPM_P1;HPM_P2
2023/02/12 00:02:01;;;;;;;39.35;20.30;;;;;;;;;;5036149;28;20021;-74
2023/02/12 00:04:47;;;;;;;36.75;20.05;;;;;;;;;;5035880;28;20086;-73
2023/02/12 00:07:32;;;;;;;39.55;21.30;;;;;;;;;;5035307;28;20032;-73
2023/02/12 00:10:18;;;;;;;41.15;21.27;;;;;;;;;;5035641;28;20112;-73
2023/02/12 00:13:04;;;;;;;38.28;20.15;;;;;;;;;;5034724;28;20025;-74
2023/02/12 00:15:49;;;;;;;40.55;20.65;;;;;;;;;;5036366;28;20017;-74
2023/02/12 00:18:35;;;;;;;41.55;20.85;;;;;;;;;;5036498;28;20017;-73
2023/02/12 00:21:21;;;;;;;39.08;20.52;;;;;;;;;;5035956;28;20429;-73
2023/02/12 00:24:07;;;;;;;37.28;21.02;;;;;;;;;;5035777;28;20021;-73
2023/02/12 00:26:52;;;;;;;39.35;21.77;;;;;;;;;;5036621;28;20040;-74
2023/02/12 00:29:38;;;;;;;41.72;21.55;;;;;;;;;;5035978;28;20354;-73
2023/02/12 00:32:24;;;;;;;38.78;20.70;;;;;;;;;;5035890;28;20037;-73
2023/02/12 00:35:09;;;;;;;39.20;20.63;;;;;;;;;;5036182;28;20032;-74
2023/02/12 00:37:55;;;;;;;44.17;21.58;;;;;;;;;;5035569;28;20025;-74
2023/02/12 00:40:40;;;;;;;39.75;20.98;;;;;;;;;;5035600;28;20035;-73
2023/02/12 00:43:26;;;;;;;42.13;22.23;;;;;;;;;;5035650;28;20113;-74
2023/02/12 00:46:12;;;;;;;41.63;22.30;;;;;;;;;;5035404;28;20026;-74
2023/02/12 00:48:57;;;;;;;42.53;23.85;;;;;;;;;;5035931;28;20017;-74
2023/02/12 00:51:43;;;;;;;44.92;23.73;;;;;;;;;;5035404;28;20029;-74
2023/02/12 00:54:29;;;;;;;41.80;22.90;;;;;;;;;;5034574;28;20087;-73
2023/02/12 00:57:15;;;;;;;40.78;22.80;;;;;;;;;;5034707;28;20056;-73
2023/02/12 01:00:00;;;;;;;41.55;22.75;;;;;;;;;;5035785;28;20022;-74
2023/02/12 01:02:46;;;;;;;41.75;22.65;;;;;;;;;;5035345;28;20087;-74
2023/02/12 01:05:32;;;;;;;44.15;23.30;;;;;;;;;;5035347;28;20358;-74
2023/02/12 01:08:17;;;;;;;44.30;23.23;;;;;;;;;;5035299;28;20072;-73
2023/02/12 01:11:03;;;;;;;42.28;23.23;;;;;;;;;;5034442;28;20415;-72
2023/02/12 01:13:49;;;;;;;40.92;22.73;;;;;;;;;;5035629;28;20397;-73
2023/02/12 01:16:35;;;;;;;39.30;22.63;;;;;;;;;;5035442;28;20089;-73
2023/02/12 01:19:20;;;;;;;42.47;23.08;;;;;;;;;;5035347;28;20116;-74
2023/02/12 01:22:06;;;;;;;41.00;22.75;;;;;;;;;;5034883;28;20032;-73
2023/02/12 01:24:52;;;;;;;41.92;23.90;;;;;;;;;;5034522;28;20017;-74
2023/02/12 01:27:37;;;;;;;43.88;24.45;;;;;;;;;;5033975;28;20055;-74
2023/02/12 01:30:23;;;;;;;40.55;23.75;;;;;;;;;;5034034;28;20025;-75
2023/02/12 01:33:09;;;;;;;45.20;23.73;;;;;;;;;;5033986;28;20077;-75
2023/02/12 01:35:55;;;;;;;44.42;24.73;;;;;;;;;;5034640;28;20022;-74
2023/02/12 01:38:40;;;;;;;46.47;24.40;;;;;;;;;;5035009;28;20033;-74
2023/02/12 01:41:28;;;;;;;44.45;25.05;;;;;;;;;;5033621;28;20064;-73
2023/02/12 01:44:18;;;;;;;44.00;24.58;;;;;;;;;;5035144;28;20083;-73
2023/02/12 01:47:05;;;;;;;47.60;24.83;;;;;;;;;;5035047;28;20438;-73
2023/02/12 01:49:50;;;;;;;44.70;24.77;;;;;;;;;;5035428;28;20041;-74
2023/02/12 01:52:37;;;;;;;45.65;25.35;;;;;;;;;;5034912;28;20040;-74
2023/02/12 01:55:23;;;;;;;47.65;24.83;;;;;;;;;;5033956;28;20044;-74
2023/02/12 01:58:09;;;;;;;49.88;25.17;;;;;;;;;;5032942;28;20510;-73
2023/02/12 02:00:54;;;;;;;48.17;26.13;;;;;;;;;;5033403;28;20335;-73
2023/02/12 02:03:41;;;;;;;50.58;26.33;;;;;;;;;;5035011;28;20037;-75
2023/02/12 02:06:38;;;;;;;57.60;26.42;;;;;;;;;;5036204;28;20021;-74
2023/02/12 02:09:25;;;;;;;47.38;25.23;;;;;;;;;;5037529;28;20095;-74
2023/02/12 02:15:15;;;;;;;47.47;25.23;;;;;;;;;;5035507;28;20021;-73
2023/02/12 02:18:00;;;;;;;51.60;26.98;;;;;;;;;;5038230;28;20021;-72
2023/02/12 02:20:58;;;;;;;50.42;26.42;;;;;;;;;;5033476;28;20112;-74
2023/02/12 02:24:02;;;;;;;48.65;26.10;;;;;;;;;;5035793;28;20403;-73
2023/02/12 02:27:06;;;;;;;45.63;25.92;;;;;;;;;;5050620;28;20020;-75
2023/02/12 02:30:06;;;;;;;46.70;25.35;;;;;;;;;;5053388;28;20035;-74
2023/02/12 02:32:55;;;;;;;48.65;26.48;;;;;;;;;;5053188;28;20112;-73
2023/02/12 02:35:59;;;;;;;50.22;26.05;;;;;;;;;;5053832;28;20045;-74
2023/02/12 02:38:49;;;;;;;49.75;26.33;;;;;;;;;;5053110;28;20056;-73
2023/02/12 02:41:41;;;;;;;48.70;26.70;;;;;;;;;;5053269;28;20052;-74
2023/02/12 02:44:41;;;;;;;49.95;27.35;;;;;;;;;;5053554;28;20039;-74
2023/02/12 02:47:31;;;;;;;50.03;26.70;;;;;;;;;;5053631;28;20035;-74
2023/02/12 02:50:19;;;;;;;51.47;27.60;;;;;;;;;;5053167;28;20460;-74
2023/02/12 02:53:07;;;;;;;48.90;26.92;;;;;;;;;;5054312;28;20017;-74
2023/02/12 02:55:54;;;;;;;53.13;28.08;;;;;;;;;;5052790;28;20029;-74
2023/02/12 02:58:49;;;;;;;50.30;27.45;;;;;;;;;;5052718;28;20049;-74
2023/02/12 03:01:39;;;;;;;52.33;27.38;;;;;;;;;;5058469;28;20063;-74
2023/02/12 03:04:37;;;;;;;51.78;25.83;;;;;;;;;;5058840;28;20087;-75
2023/02/12 03:07:25;;;;;;;54.60;27.58;;;;;;;;;;5058777;28;20155;-74
2023/02/12 03:10:14;;;;;;;53.17;26.70;;;;;;;;;;5058244;28;20025;-74
2023/02/12 03:13:11;;;;;;;48.30;26.38;;;;;;;;;;5058092;28;20052;-75
2023/02/12 03:15:56;;;;;;;49.60;26.80;;;;;;;;;;5057576;28;20017;-75
2023/02/12 03:18:49;;;;;;;50.33;27.08;;;;;;;;;;5057656;28;20025;-74
2023/02/12 03:21:47;;;;;;;51.42;26.70;;;;;;;;;;5057926;28;20036;-75
2023/02/12 03:25:08;;;;;;;49.17;27.02;;;;;;;;;;5056835;28;20049;-74
2023/02/12 03:28:05;;;;;;;47.20;25.98;;;;;;;;;;5034178;28;20043;-74
2023/02/12 03:30:57;;;;;;;48.67;26.42;;;;;;;;;;5057875;28;20037;-75
2023/02/12 03:33:51;;;;;;;52.20;27.33;;;;;;;;;;5058063;28;20037;-75
2023/02/12 03:36:46;;;;;;;50.65;27.48;;;;;;;;;;5058080;28;20348;-74
2023/02/12 03:39:54;;;;;;;49.00;27.95;;;;;;;;;;5057691;28;20028;-74
2023/02/12 03:42:46;;;;;;;50.75;26.15;;;;;;;;;;5057697;28;20071;-74
2023/02/12 03:45:37;;;;;;;54.95;28.00;;;;;;;;;;5057870;28;20017;-74
2023/02/12 03:48:29;;;;;;;53.42;28.50;;;;;;;;;;5057859;28;20025;-74
2023/02/12 03:51:19;;;;;;;54.75;28.70;;;;;;;;;;5057265;28;20025;-74
2023/02/12 03:54:06;;;;;;;54.38;29.38;;;;;;;;;;5057262;28;20052;-74
2023/02/12 03:57:06;;;;;;;54.28;28.67;;;;;;;;;;5057589;28;20460;-75
2023/02/12 03:59:52;;;;;;;54.20;27.92;;;;;;;;;;5055770;28;20025;-75
2023/02/12 04:02:38;;;;;;;45.92;26.77;;;;;;;;;;5056182;28;20112;-74
2023/02/12 04:05:25;;;;;;;53.70;29.67;;;;;;;;;;5057488;28;20100;-73
2023/02/12 04:08:11;;;;;;;56.90;29.05;;;;;;;;;;5057220;28;20422;-75
2023/02/12 04:11:00;;;;;;;52.90;28.35;;;;;;;;;;5056041;28;20086;-74
2023/02/12 04:13:48;;;;;;;50.55;28.20;;;;;;;;;;5056591;28;20108;-75
2023/02/12 04:16:40;;;;;;;54.60;29.42;;;;;;;;;;5057075;28;20116;-74
2023/02/12 04:19:51;;;;;;;53.28;28.42;;;;;;;;;;5056850;28;20032;-74
2023/02/12 04:22:44;;;;;;;60.83;30.15;;;;;;;;;;5056777;28;20025;-75
2023/02/12 04:25:39;;;;;;;48.92;28.63;;;;;;;;;;5057525;28;20057;-76
2023/02/12 04:28:50;;;;;;;51.95;28.63;;;;;;;;;;5059950;28;20024;-74
2023/02/12 04:31:49;;;;;;;55.17;28.73;;;;;;;;;;5042873;28;20461;-74
2023/02/12 04:34:34;;;;;;;54.05;28.88;;;;;;;;;;5059083;28;20033;-74
2023/02/12 04:37:30;;;;;;;55.38;28.83;;;;;;;;;;5059205;28;20049;-74
2023/02/12 04:40:17;;;;;;;52.67;28.60;;;;;;;;;;5057437;28;20021;-74
2023/02/12 04:43:02;;;;;;;55.03;28.33;;;;;;;;;;5054452;28;20028;-74
2023/02/12 04:45:48;;;;;;;55.10;28.77;;;;;;;;;;5056313;28;20031;-74
2023/02/12 04:48:35;;;;;;;60.35;30.73;;;;;;;;;;5056882;28;20028;-73
2023/02/12 04:51:21;;;;;;;55.22;29.60;;;;;;;;;;5056605;28;20017;-75
2023/02/12 04:54:07;;;;;;;57.85;30.95;;;;;;;;;;5055446;28;20025;-74
2023/02/12 04:56:52;;;;;;;52.50;28.55;;;;;;;;;;5054857;28;20016;-74
2023/02/12 04:59:38;;;;;;;57.58;29.88;;;;;;;;;;5056184;28;20013;-74
2023/02/12 05:02:23;;;;;;;57.67;29.65;;;;;;;;;;5055971;28;20031;-74
2023/02/12 05:05:09;;;;;;;54.53;29.27;;;;;;;;;;5057873;28;20021;-74
2023/02/12 05:07:54;;;;;;;56.17;29.48;;;;;;;;;;5058478;28;20032;-74
2023/02/12 05:10:40;;;;;;;57.78;30.55;;;;;;;;;;5057020;28;20085;-74
2023/02/12 05:13:26;;;;;;;55.63;29.92;;;;;;;;;;5058207;28;20331;-74
2023/02/12 05:16:11;;;;;;;54.95;29.83;;;;;;;;;;5058925;28;20032;-75
2023/02/12 05:18:57;;;;;;;54.47;29.52;;;;;;;;;;5057971;28;20047;-74
2023/02/12 05:21:42;;;;;;;58.00;29.90;;;;;;;;;;5055626;28;20029;-74
2023/02/12 05:24:28;;;;;;;58.17;31.38;;;;;;;;;;5057517;28;20358;-75
2023/02/12 05:27:13;;;;;;;61.15;31.23;;;;;;;;;;5058281;28;20025;-75
2023/02/12 05:29:59;;;;;;;57.15;31.38;;;;;;;;;;5055667;28;20025;-74
2023/02/12 05:32:44;;;;;;;58.80;30.83;;;;;;;;;;5056547;28;20049;-74
2023/02/12 05:35:33;;;;;;;61.15;31.70;;;;;;;;;;5055565;28;20039;-74
2023/02/12 05:38:18;;;;;;;62.38;32.13;;;;;;;;;;5057884;28;20024;-74
2023/02/12 05:41:05;;;;;;;59.42;31.23;;;;;;;;;;5056694;28;20103;-74
2023/02/12 05:43:51;;;;;;;60.83;31.23;;;;;;;;;;5055483;28;20029;-75
2023/02/12 05:46:37;;;;;;;65.97;31.35;;;;;;;;;;5054036;28;20107;-75
2023/02/12 05:49:23;;;;;;;63.35;32.38;;;;;;;;;;5054233;28;20025;-74
2023/02/12 05:52:09;;;;;;;62.85;32.00;;;;;;;;;;5055650;28;20017;-75
2023/02/12 05:54:54;;;;;;;66.15;32.28;;;;;;;;;;5055766;28;20021;-75
2023/02/12 05:57:40;;;;;;;59.03;31.17;;;;;;;;;;5055458;28;20033;-75
2023/02/12 06:00:25;;;;;;;60.05;31.20;;;;;;;;;;5054072;28;20025;-71
2023/02/12 06:03:11;;;;;;;62.85;32.83;;;;;;;;;;5055039;28;20416;-71
2023/02/12 06:05:57;;;;;;;63.03;32.13;;;;;;;;;;5054635;28;20040;-71
2023/02/12 06:08:42;;;;;;;61.53;31.00;;;;;;;;;;5053418;28;20025;-71
2023/02/12 06:11:28;;;;;;;61.80;31.55;;;;;;;;;;5054329;28;20013;-72
2023/02/12 06:14:15;;;;;;;67.50;32.80;;;;;;;;;;5054197;28;20096;-72
2023/02/12 06:17:00;;;;;;;63.10;31.83;;;;;;;;;;5054846;28;20036;-71
2023/02/12 06:19:46;;;;;;;59.33;32.75;;;;;;;;;;5055021;28;20112;-71
2023/02/12 06:22:32;;;;;;;67.95;33.72;;;;;;;;;;5053832;28;20017;-70
2023/02/12 06:25:17;;;;;;;65.05;33.28;;;;;;;;;;5054543;28;20033;-71
2023/02/12 06:28:03;;;;;;;64.90;32.78;;;;;;;;;;5055027;28;20013;-71
2023/02/12 06:30:49;;;;;;;73.38;34.10;;;;;;;;;;5054920;28;20036;-72
2023/02/12 06:33:34;;;;;;;64.05;32.65;;;;;;;;;;5054094;28;20045;-72
2023/02/12 06:36:20;;;;;;;62.42;32.40;;;;;;;;;;5053575;28;20402;-71
2023/02/12 06:39:06;;;;;;;62.28;32.63;;;;;;;;;;5054885;28;20476;-70
2023/02/12 06:41:53;;;;;;;58.40;32.55;;;;;;;;;;5054213;28;20032;-71
2023/02/12 06:44:38;;;;;;;59.67;31.67;;;;;;;;;;5054250;28;20465;-72
2023/02/12 06:47:24;;;;;;;61.42;32.45;;;;;;;;;;5054796;28;20039;-71
2023/02/12 06:50:10;;;;;;;62.10;34.10;;;;;;;;;;5059028;28;20108;-70
2023/02/12 06:52:57;;;;;;;65.65;33.65;;;;;;;;;;5060464;28;20358;-70
2023/02/12 06:55:42;;;;;;;68.05;34.03;;;;;;;;;;5054795;28;20056;-72
2023/02/12 06:58:28;;;;;;;64.88;34.17;;;;;;;;;;5053553;28;20028;-73
2023/02/12 07:01:16;;;;;;;62.00;33.85;;;;;;;;;;5054137;28;20021;-73
2023/02/12 07:04:02;;;;;;;65.20;35.05;;;;;;;;;;5054553;28;20091;-72
2023/02/12 07:06:48;;;;;;;66.05;34.50;;;;;;;;;;5053269;28;20040;-71
2023/02/12 07:09:33;;;;;;;66.50;34.80;;;;;;;;;;5054335;28;20017;-71
2023/02/12 07:12:19;;;;;;;65.43;33.53;;;;;;;;;;5053513;28;20021;-71
2023/02/12 07:15:05;;;;;;;63.88;35.30;;;;;;;;;;5054092;28;20013;-71
2023/02/12 07:17:50;;;;;;;66.32;33.72;;;;;;;;;;5053682;28;20460;-72
2023/02/12 07:20:36;;;;;;;70.45;35.15;;;;;;;;;;5054427;28;20032;-72
2023/02/12 07:23:21;;;;;;;66.10;33.65;;;;;;;;;;5053832;28;20041;-70
2023/02/12 07:26:09;;;;;;;61.60;33.63;;;;;;;;;;5054404;28;20028;-72
2023/02/12 07:28:55;;;;;;;67.30;34.88;;;;;;;;;;5052884;28;20021;-72
2023/02/12 07:31:41;;;;;;;67.35;34.92;;;;;;;;;;5052713;28;20048;-72
2023/02/12 07:34:27;;;;;;;62.47;33.85;;;;;;;;;;5052592;28;20021;-72
2023/02/12 07:37:12;;;;;;;63.78;33.00;;;;;;;;;;5053449;28;20029;-72
2023/02/12 07:39:58;;;;;;;65.63;32.95;;;;;;;;;;5054415;28;20514;-71
2023/02/12 07:42:43;;;;;;;63.65;32.63;;;;;;;;;;5054966;28;20024;-71
2023/02/12 07:45:29;;;;;;;63.45;32.75;;;;;;;;;;5057453;28;20107;-71
2023/02/12 07:48:15;;;;;;;62.80;32.97;;;;;;;;;;5058798;28;20472;-72
2023/02/12 07:51:04;;;;;;;64.25;34.20;;;;;;;;;;5057505;28;20021;-72
2023/02/12 07:53:50;;;;;;;63.15;34.58;;;;;;;;;;5057641;28;20399;-71
2023/02/12 07:56:37;;;;;;;67.47;34.17;;;;;;;;;;5058177;28;20021;-71
2023/02/12 07:59:23;;;;;;;63.97;34.53;;;;;;;;;;5057283;28;20086;-72
2023/02/12 08:02:09;;;;;;;66.05;34.05;;;;;;;;;;5056987;28;20347;-72
2023/02/12 08:04:55;;;;;;;64.57;32.95;;;;;;;;;;5057599;28;20101;-71
2023/02/12 08:07:40;;;;;;;63.53;33.25;;;;;;;;;;5057284;28;20048;-72
2023/02/12 08:10:26;;;;;;;64.53;33.08;;;;;;;;;;5056810;28;20104;-72
2023/02/12 08:13:11;;;;;;;60.67;31.63;;;;;;;;;;5057323;28;20021;-72
2023/02/12 08:16:01;;;;;;;63.17;32.08;;;;;;;;;;5056299;28;20021;-71
2023/02/12 08:18:47;;;;;;;61.40;32.15;;;;;;;;;;5057984;28;20024;-71
2023/02/12 08:21:33;;;;;;;62.83;31.67;;;;;;;;;;5057037;28;20017;-71
2023/02/12 08:24:20;;;;;;;62.30;33.63;;;;;;;;;;5057119;28;20024;-71
2023/02/12 08:27:06;;;;;;;64.82;34.50;;;;;;;;;;5055892;28;20067;-72
2023/02/12 08:29:52;;;;;;;60.88;32.17;;;;;;;;;;5057118;28;20025;-72
2023/02/12 08:32:37;;;;;;;59.00;31.42;;;;;;;;;;5056336;28;20053;-71
2023/02/12 08:35:23;;;;;;;64.43;31.90;;;;;;;;;;5056673;28;20047;-71
2023/02/12 08:38:08;;;;;;;60.60;32.05;;;;;;;;;;5055792;28;20335;-71
2023/02/12 08:40:54;;;;;;;61.78;32.33;;;;;;;;;;5056903;28;20118;-71
2023/02/12 08:43:40;;;;;;;59.50;32.22;;;;;;;;;;5055386;28;20029;-72
2023/02/12 08:46:27;;;;;;;61.50;31.95;;;;;;;;;;5056522;28;20059;-71
2023/02/12 08:49:14;;;;;;;60.45;32.53;;;;;;;;;;5056127;28;20044;-72
2023/02/12 08:52:01;;;;;;;60.08;31.52;;;;;;;;;;5056425;28;20108;-72
2023/02/12 08:54:46;;;;;;;59.75;30.88;;;;;;;;;;5056234;28;20035;-72
2023/02/12 08:57:34;;;;;;;61.22;31.60;;;;;;;;;;5056197;28;20020;-73
2023/02/12 09:00:19;;;;;;;59.00;32.83;;;;;;;;;;5056416;28;20102;-72
2023/02/12 09:03:05;;;;;;;57.80;32.15;;;;;;;;;;5055882;28;20034;-71
2023/02/12 09:05:51;;;;;;;60.13;32.95;;;;;;;;;;5056254;28;20137;-72
2023/02/12 09:08:37;;;;;;;60.70;32.83;;;;;;;;;;5055178;28;20021;-72
2023/02/12 09:11:29;;;;;;;61.80;32.35;;;;;;;;;;5056239;28;20048;-71
2023/02/12 09:14:16;;;;;;;59.13;32.20;;;;;;;;;;5055977;28;20365;-70
2023/02/12 09:17:02;;;;;;;59.95;32.00;;;;;;;;;;5055938;28;20226;-72
2023/02/12 09:19:47;;;;;;;58.47;30.98;;;;;;;;;;5053679;28;20024;-72
2023/02/12 09:22:36;;;;;;;61.28;32.55;;;;;;;;;;5056455;28;20079;-72
2023/02/12 09:25:22;;;;;;;63.08;33.08;;;;;;;;;;5055860;28;20024;-71
2023/02/12 09:28:08;;;;;;;57.55;30.83;;;;;;;;;;5055351;28;20020;-71
2023/02/12 09:30:54;;;;;;;57.67;30.60;;;;;;;;;;5056164;28;20028;-70
2023/02/12 09:33:40;;;;;;;58.05;31.13;;;;;;;;;;5055146;28;20169;-71
2023/02/12 09:36:26;;;;;;;61.33;31.88;;;;;;;;;;5055877;28;20048;-70
2023/02/12 09:39:12;;;;;;;56.95;32.72;;;;;;;;;;5055040;28;20021;-71
2023/02/12 09:42:09;;;;;;;64.55;33.40;;;;;;;;;;5056139;28;20055;-71
2023/02/12 09:45:01;;;;;;;57.33;32.35;;;;;;;;;;5055699;28;20079;-71
2023/02/12 09:48:00;;;;;;;63.92;32.58;;;;;;;;;;5055520;28;20091;-72
2023/02/12 09:50:51;;;;;;;65.65;34.05;;;;;;;;;;5054988;28;20025;-71
2023/02/12 09:53:42;;;;;;;56.25;31.40;;;;;;;;;;5055321;28;20051;-71
2023/02/12 09:56:28;;;;;;;67.20;35.65;;;;;;;;;;5055444;28;20021;-71
2023/02/12 09:59:20;;;;;;;60.08;32.85;;;;;;;;;;5054936;28;20025;-71
2023/02/12 10:02:14;;;;;;;52.65;31.50;;;;;;;;;;5055195;28;20450;-71
2023/02/12 10:04:59;;;;;;;58.58;32.30;;;;;;;;;;5055678;28;20060;-71
2023/02/12 10:08:03;;;;;;;57.25;30.52;;;;;;;;;;5054471;28;20442;-70
2023/02/12 10:10:56;;;;;;;57.40;31.92;;;;;;;;;;5054928;28;20029;-71
2023/02/12 10:13:52;;;;;;;53.88;29.77;;;;;;;;;;5055162;28;20017;-71
2023/02/12 10:16:43;;;;;;;55.05;30.10;;;;;;;;;;5054600;28;20013;-71
2023/02/12 10:19:37;;;;;;;56.42;31.33;;;;;;;;;;5054889;28;20041;-71
2023/02/12 10:22:43;;;;;;;55.83;30.27;;;;;;;;;;5055439;28;20068;-71
2023/02/12 10:25:35;;;;;;;55.88;29.92;;;;;;;;;;5054556;28;20021;-71
2023/02/12 10:28:26;;;;;;;54.20;30.48;;;;;;;;;;5055336;28;20017;-71
2023/02/12 10:31:33;;;;;;;58.45;30.65;;;;;;;;;;5054499;28;20335;-71
2023/02/12 10:34:26;;;;;;;58.20;30.50;;;;;;;;;;5054953;28;20113;-71
2023/02/12 10:37:11;;;;;;;53.63;29.75;;;;;;;;;;5055624;28;20021;-71
2023/02/12 10:40:00;;;;;;;57.38;30.80;;;;;;;;;;5054800;28;20053;-72
2023/02/12 10:42:46;;;;;;;54.92;30.23;;;;;;;;;;5053145;28;20108;-70
2023/02/12 10:45:34;;;;;;;54.85;29.80;;;;;;;;;;5053908;28;20021;-72
2023/02/12 10:48:39;;;;;;;59.67;29.80;;;;;;;;;;5054470;28;20033;-71
2023/02/12 10:51:28;;;;;;;59.78;30.05;;;;;;;;;;5054369;28;20113;-72
2023/02/12 10:54:47;;;;;;;51.35;28.27;;;;;;;;;;5054963;28;20086;-72
2023/02/12 10:57:37;;;;;;;54.92;30.60;;;;;;;;;;5029997;28;20112;-72
2023/02/12 11:00:36;;;;;;;56.45;30.48;;;;;;;;;;5055299;28;20023;-72
2023/02/12 11:03:22;;;;;;;56.25;30.05;;;;;;;;;;5054194;28;20449;-71
2023/02/12 11:06:16;;;;;;;57.17;30.73;;;;;;;;;;5053783;28;20032;-72
2023/02/12 11:09:03;;;;;;;57.53;30.75;;;;;;;;;;5054664;28;20472;-72
2023/02/12 11:11:49;;;;;;;64.85;33.42;;;;;;;;;;5054444;28;20025;-71
2023/02/12 11:14:34;;;;;;;64.00;31.77;;;;;;;;;;5053346;28;20412;-72
2023/02/12 11:17:25;;;;;;;61.00;32.58;;;;;;;;;;5054632;28;20410;-73
2023/02/12 11:20:16;;;;;;;61.03;31.85;;;;;;;;;;5055016;28;20108;-72
2023/02/12 11:23:05;;;;;;;60.38;33.67;;;;;;;;;;5058514;28;20036;-73
2023/02/12 11:26:01;;;;;;;60.92;33.47;;;;;;;;;;5058048;28;20112;-71
2023/02/12 11:28:57;;;;;;;59.38;33.17;;;;;;;;;;5058226;28;20119;-71
2023/02/12 11:31:57;;;;;;;61.30;33.38;;;;;;;;;;5058572;28;20132;-75
2023/02/12 11:34:43;;;;;;;59.97;32.72;;;;;;;;;;5057521;28;20024;-76
2023/02/12 11:37:31;;;;;;;61.55;33.20;;;;;;;;;;5066964;28;20028;-74
2023/02/12 11:40:19;;;;;;;62.35;33.33;;;;;;;;;;5061999;28;20056;-77
2023/02/12 11:43:06;;;;;;;59.40;32.10;;;;;;;;;;5058584;28;20024;-77
2023/02/12 11:45:55;;;;;;;59.30;31.65;;;;;;;;;;5058896;28;20025;-75
2023/02/12 11:48:45;;;;;;;55.70;31.55;;;;;;;;;;5057930;28;20380;-76
2023/02/12 11:51:31;;;;;;;59.35;31.23;;;;;;;;;;5058924;28;20433;-75
2023/02/12 11:54:19;;;;;;;58.15;31.55;;;;;;;;;;5068628;28;20118;-74
2023/02/12 11:57:04;;;;;;;54.03;29.95;;;;;;;;;;5066528;28;20193;-75
2023/02/12 11:59:50;;;;;;;55.47;31.00;;;;;;;;;;5061722;28;20032;-76
2023/02/12 12:02:37;;;;;;;60.78;31.98;;;;;;;;;;5058956;28;20096;-76
2023/02/12 12:05:26;;;;;;;57.40;32.05;;;;;;;;;;5057520;28;20048;-76
2023/02/12 12:08:32;;;;;;;61.45;32.95;;;;;;;;;;5062336;28;20031;-78
2023/02/12 12:11:38;;;;;;;55.97;31.10;;;;;;;;;;5056604;28;20040;-77
2023/02/12 12:21:11;;;;;;;57.03;31.08;;;;;;;;;;5056335;28;20025;-75
2023/02/12 12:24:02;;;;;;;61.75;33.08;;;;;;;;;;5056794;28;20028;-76
2023/02/12 12:26:59;;;;;;;57.25;31.85;;;;;;;;;;5057046;28;20365;-76
2023/02/12 12:29:53;;;;;;;59.70;31.95;;;;;;;;;;5057408;28;20020;-76
2023/02/12 12:32:40;;;;;;;57.88;32.17;;;;;;;;;;5056501;28;20493;-75
2023/02/12 12:35:32;;;;;;;54.22;30.95;;;;;;;;;;5056865;28;20028;-77
2023/02/12 12:38:38;;;;;;;53.78;30.75;;;;;;;;;;5056386;28;20421;-77
2023/02/12 12:41:30;;;;;;;55.65;31.05;;;;;;;;;;5027281;28;20108;-76
2023/02/12 12:44:21;;;;;;;59.88;31.50;;;;;;;;;;5056897;28;20476;-77
2023/02/12 12:47:21;;;;;;;57.35;31.40;;;;;;;;;;5056961;28;20017;-77
2023/02/12 12:50:19;;;;;;;56.90;30.80;;;;;;;;;;5056670;28;20017;-77
2023/02/12 12:53:11;;;;;;;53.10;29.95;;;;;;;;;;5056941;28;20354;-78
2023/02/12 12:56:05;;;;;;;57.67;30.58;;;;;;;;;;5056595;28;20365;-77
2023/02/12 12:59:09;;;;;;;53.20;30.00;;;;;;;;;;5056968;28;20025;-75
2023/02/12 13:02:13;;;;;;;56.97;30.42;;;;;;;;;;5056307;28;20028;-76
2023/02/12 13:04:59;;;;;;;58.05;30.55;;;;;;;;;;5056370;28;20025;-75
2023/02/12 13:07:44;;;;;;;51.22;29.95;;;;;;;;;;5057263;28;20357;-77
2023/02/12 13:10:38;;;;;;;57.92;30.17;;;;;;;;;;5056217;28;20112;-76
2023/02/12 13:13:32;;;;;;;56.55;30.63;;;;;;;;;;5055677;28;20035;-75
2023/02/12 13:16:21;;;;;;;58.30;29.55;;;;;;;;;;5055160;28;20060;-76
2023/02/12 13:19:25;;;;;;;57.33;30.50;;;;;;;;;;5056633;28;20400;-75
2023/02/12 13:22:30;;;;;;;54.08;30.30;;;;;;;;;;5056916;28;20468;-76
2023/02/12 13:25:15;;;;;;;54.50;30.55;;;;;;;;;;5055926;28;20024;-76
2023/02/12 13:28:01;;;;;;;60.17;30.85;;;;;;;;;;5055939;28;20024;-77
2023/02/12 13:30:48;;;;;;;53.47;30.85;;;;;;;;;;5055543;28;20025;-76
2023/02/12 13:33:42;;;;;;;57.83;32.55;;;;;;;;;;5056010;28;20429;-77
2023/02/12 13:36:27;;;;;;;52.97;30.42;;;;;;;;;;5056261;28;20044;-77
2023/02/12 13:39:36;;;;;;;57.15;31.27;;;;;;;;;;5055447;28;20149;-75
2023/02/12 13:42:24;;;;;;;55.47;31.02;;;;;;;;;;5055513;28;20445;-76
2023/02/12 13:45:10;;;;;;;54.42;30.55;;;;;;;;;;5056044;28;20025;-75
2023/02/12 13:48:22;;;;;;;56.53;31.10;;;;;;;;;;5054871;28;20025;-75
2023/02/12 13:51:24;;;;;;;72.05;35.30;;;;;;;;;;5056556;28;20035;-75
2023/02/12 13:54:28;;;;;;;77.57;38.83;;;;;;;;;;5055664;28;20043;-74
2023/02/12 13:57:15;;;;;;;63.33;32.55;;;;;;;;;;5055026;28;20021;-74
2023/02/12 14:00:07;;;;;;;80.47;37.42;;;;;;;;;;5054100;28;20469;-75
2023/02/12 14:02:52;;;;;;;59.53;32.55;;;;;;;;;;5055142;28;20102;-76
2023/02/12 14:05:38;;;;;;;61.50;33.47;;;;;;;;;;5055490;28;20017;-76
2023/02/12 14:08:33;;;;;;;57.35;30.65;;;;;;;;;;5055292;28;20334;-76
2023/02/12 14:11:23;;;;;;;62.53;33.28;;;;;;;;;;5054465;28;20457;-75
2023/02/12 14:14:09;;;;;;;64.28;34.60;;;;;;;;;;5055229;28;20032;-74
2023/02/12 14:16:56;;;;;;;65.85;33.65;;;;;;;;;;5055484;28;20020;-75
2023/02/12 14:20:02;;;;;;;64.30;34.22;;;;;;;;;;5055625;28;20426;-75
2023/02/12 14:22:47;;;;;;;61.58;33.15;;;;;;;;;;5029646;28;20091;-75
2023/02/12 14:25:38;;;;;;;63.33;33.15;;;;;;;;;;5034413;28;20017;-75
2023/02/12 14:28:24;;;;;;;62.88;34.08;;;;;;;;;;5035563;28;20021;-75
2023/02/12 14:31:19;;;;;;;61.92;34.20;;;;;;;;;;5033934;28;20410;-75
2023/02/12 14:34:05;;;;;;;66.18;34.80;;;;;;;;;;5033733;28;20112;-75
2023/02/12 14:37:09;;;;;;;67.43;35.08;;;;;;;;;;5034542;28;20082;-75
2023/02/12 14:40:14;;;;;;;68.47;35.53;;;;;;;;;;5033668;28;20081;-75
2023/02/12 14:43:01;;;;;;;65.47;35.22;;;;;;;;;;5048473;28;20021;-74
2023/02/12 14:45:47;;;;;;;66.68;33.85;;;;;;;;;;5034218;28;20361;-75
2023/02/12 14:48:45;;;;;;;67.00;35.97;;;;;;;;;;5035624;28;20026;-77
2023/02/12 14:51:41;;;;;;;65.03;34.20;;;;;;;;;;5048651;28;20191;-73
2023/02/12 14:54:27;;;;;;;64.55;35.40;;;;;;;;;;5051904;28;20021;-72
2023/02/12 14:57:13;;;;;;;64.38;34.95;;;;;;;;;;5059720;28;20021;-77
2023/02/12 15:00:03;;;;;;;67.47;35.50;;;;;;;;;;5072141;28;20134;-78
2023/02/12 15:02:53;;;;;;;64.35;34.40;;;;;;;;;;5062104;28;20024;-75
2023/02/12 15:05:48;;;;;;;64.13;34.13;;;;;;;;;;5058040;28;20021;-74
2023/02/12 15:08:52;;;;;;;63.72;35.33;;;;;;;;;;5063560;28;20468;-71
2023/02/12 15:11:40;;;;;;;65.82;35.05;;;;;;;;;;5057525;28;20025;-72
2023/02/12 15:14:29;;;;;;;61.90;34.40;;;;;;;;;;5057784;28;20028;-78
2023/02/12 15:17:19;;;;;;;70.78;34.95;;;;;;;;;;5055134;28;20025;-75
2023/02/12 15:20:23;;;;;;;66.25;34.42;;;;;;;;;;5057811;28;20036;-74
2023/02/12 15:23:27;;;;;;;70.75;35.75;;;;;;;;;;5056923;28;20021;-76
2023/02/12 15:26:14;;;;;;;70.40;34.97;;;;;;;;;;5057596;28;20040;-76
2023/02/12 15:29:01;;;;;;;73.07;38.38;;;;;;;;;;5057460;28;20059;-73
2023/02/12 15:31:51;;;;;;;69.22;36.97;;;;;;;;;;5056551;28;20056;-76
2023/02/12 15:34:39;;;;;;;78.32;40.33;;;;;;;;;;5065537;28;20035;-75
2023/02/12 15:37:29;;;;;;;89.28;43.65;;;;;;;;;;5063841;28;20017;-77
2023/02/12 15:40:15;;;;;;;82.40;41.60;;;;;;;;;;5058899;28;20183;-78
2023/02/12 15:43:03;;;;;;;72.97;38.17;;;;;;;;;;5057450;28;20021;-78
2023/02/12 15:45:50;;;;;;;72.93;37.47;;;;;;;;;;5057056;28;20091;-77
2023/02/12 15:48:37;;;;;;;75.90;37.38;;;;;;;;;;5056988;28;20031;-78
2023/02/12 15:51:33;;;;;;;73.38;37.55;;;;;;;;;;5057754;28;20036;-78
2023/02/12 15:54:19;;;;;;;78.20;39.55;;;;;;;;;;5056992;28;20471;-78
2023/02/12 15:57:08;;;;;;;78.20;39.03;;;;;;;;;;5056790;28;20068;-78
2023/02/12 15:59:55;;;;;;;79.13;38.92;;;;;;;;;;5059593;28;20021;-80
2023/02/12 16:02:41;;;;;;;82.53;41.53;;;;;;;;;;5057434;28;20025;-78
2023/02/12 16:05:27;;;;;;;88.05;44.42;;;;;;;;;;5056463;28;20064;-79
2023/02/12 16:08:15;;;;;;;93.28;48.55;;;;;;;;;;5057567;28;20028;-78
2023/02/12 16:11:12;;;;;;;93.03;49.67;;;;;;;;;;5056189;28;20083;-77
2023/02/12 16:14:02;;;;;;;94.00;48.45;;;;;;;;;;5056384;28;20100;-77
2023/02/12 16:16:49;;;;;;;100.07;50.20;;;;;;;;;;5056524;28;20019;-78
2023/02/12 16:19:36;;;;;;;97.57;49.40;;;;;;;;;;5056368;28;20033;-77
2023/02/12 16:22:25;;;;;;;108.15;53.17;;;;;;;;;;5056813;28;20357;-80
2023/02/12 16:25:19;;;;;;;108.80;55.50;;;;;;;;;;5056292;28;20031;-78
2023/02/12 16:28:17;;;;;;;116.43;56.92;;;;;;;;;;5055859;28;20021;-78
2023/02/12 16:31:10;;;;;;;120.53;61.95;;;;;;;;;;5055612;28;20053;-78
2023/02/12 16:33:57;;;;;;;125.50;63.65;;;;;;;;;;5055643;28;20033;-79
2023/02/12 16:36:46;;;;;;;122.35;60.85;;;;;;;;;;5056715;28;20021;-78